sensor_id;sensor_type;location;lat;lon;timestamp;P1;durP1;ratioP1;P2;durP2;ratioP2
15002;SDS011;7597;53.590;10.020;2022-12-18T00:00:20;18.50;;;12.70;;
15002;SDS011;7597;53.590;10.020;2022-12-18T00:02:47;23.70;;;13.50;;
15002;SDS011;7597;53.590;10.020;2022-12-18T00:05:14;19.70;;;12.97;;
15002;SDS011;7597;53.590;10.020;2022-12-18T00:07:41;19.37;;;12.67;;
15002;SDS011;7597;53.590;10.020;2022-12-18T00:10:08;20.57;;;13.17;;
15002;SDS011;7597;53.590;10.020;2022-12-18T00:12:35;21.07;;;13.97;;
15002;SDS011;7597;53.590;10.020;2022-12-18T00:15:02;23.27;;;13.13;;
15002;SDS011;7597;53.590;10.020;2022-12-18T00:17:29;19.13;;;12.73;;
15002;SDS011;7597;53.590;10.020;2022-12-18T00:19:55;18.40;;;12.93;;
15002;SDS011;7597;53.590;10.020;2022-12-18T00:22:22;21.90;;;12.90;;
15002;SDS011;7597;53.590;10.020;2022-12-18T00:24:49;21.57;;;12.10;;
15002;SDS011;7597;53.590;10.020;2022-12-18T00:27:16;22.07;;;12.93;;
15002;SDS011;7597;53.590;10.020;2022-12-18T00:29:42;21.87;;;13.30;;
15002;SDS011;7597;53.590;10.020;2022-12-18T00:32:09;17.53;;;12.20;;
15002;SDS011;7597;53.590;10.020;2022-12-18T00:34:36;23.13;;;13.50;;
15002;SDS011;7597;53.590;10.020;2022-12-18T00:37:02;19.67;;;13.43;;
15002;SDS011;7597;53.590;10.020;2022-12-18T00:39:29;23.53;;;12.13;;
15002;SDS011;7597;53.590;10.020;2022-12-18T00:41:56;24.00;;;12.87;;
15002;SDS011;7597;53.590;10.020;2022-12-18T00:44:28;20.33;;;12.70;;
15002;SDS011;7597;53.590;10.020;2022-12-18T00:46:55;20.23;;;12.87;;
15002;SDS011;7597;53.590;10.020;2022-12-18T00:49:22;20.90;;;14.00;;
15002;SDS011;7597;53.590;10.020;2022-12-18T00:51:49;18.53;;;12.97;;
15002;SDS011;7597;53.590;10.020;2022-12-18T00:54:16;18.27;;;11.43;;
15002;SDS011;7597;53.590;10.020;2022-12-18T00:56:42;20.33;;;11.83;;
15002;SDS011;7597;53.590;10.020;2022-12-18T00:59:09;17.73;;;11.80;;
15002;SDS011;7597;53.590;10.020;2022-12-18T01:01:36;18.60;;;12.00;;
15002;SDS011;7597;53.590;10.020;2022-12-18T01:04:03;16.30;;;11.90;;
15002;SDS011;7597;53.590;10.020;2022-12-18T01:06:30;19.33;;;12.07;;
15002;SDS011;7597;53.590;10.020;2022-12-18T01:08:57;19.83;;;12.00;;
15002;SDS011;7597;53.590;10.020;2022-12-18T01:11:23;18.93;;;12.07;;
15002;SDS011;7597;53.590;10.020;2022-12-18T01:13:51;17.60;;;11.50;;
15002;SDS011;7597;53.590;10.020;2022-12-18T01:16:17;17.90;;;12.07;;
15002;SDS011;7597;53.590;10.020;2022-12-18T01:18:43;24.17;;;13.27;;
15002;SDS011;7597;53.590;10.020;2022-12-18T01:21:12;19.07;;;12.83;;
15002;SDS011;7597;53.590;10.020;2022-12-18T01:23:37;22.80;;;12.17;;
15002;SDS011;7597;53.590;10.020;2022-12-18T01:26:04;21.77;;;12.10;;
15002;SDS011;7597;53.590;10.020;2022-12-18T01:28:30;17.93;;;12.00;;
15002;SDS011;7597;53.590;10.020;2022-12-18T01:30:57;19.07;;;12.50;;
15002;SDS011;7597;53.590;10.020;2022-12-18T01:33:23;20.23;;;11.63;;
15002;SDS011;7597;53.590;10.020;2022-12-18T01:35:50;22.53;;;12.80;;
15002;SDS011;7597;53.590;10.020;2022-12-18T01:38:17;21.43;;;12.47;;
15002;SDS011;7597;53.590;10.020;2022-12-18T01:40:43;23.47;;;12.33;;
15002;SDS011;7597;53.590;10.020;2022-12-18T01:43:10;23.00;;;12.30;;
15002;SDS011;7597;53.590;10.020;2022-12-18T01:45:37;19.53;;;12.07;;
15002;SDS011;7597;53.590;10.020;2022-12-18T01:48:05;17.30;;;11.63;;
15002;SDS011;7597;53.590;10.020;2022-12-18T01:50:32;21.20;;;11.90;;
15002;SDS011;7597;53.590;10.020;2022-12-18T01:53:03;17.07;;;11.00;;
15002;SDS011;7597;53.590;10.020;2022-12-18T01:55:32;18.60;;;11.77;;
15002;SDS011;7597;53.590;10.020;2022-12-18T01:57:58;21.37;;;12.33;;
15002;SDS011;7597;53.590;10.020;2022-12-18T02:00:25;18.83;;;11.30;;
15002;SDS011;7597;53.590;10.020;2022-12-18T02:02:51;20.30;;;12.67;;
15002;SDS011;7597;53.590;10.020;2022-12-18T02:05:22;21.20;;;11.60;;
15002;SDS011;7597;53.590;10.020;2022-12-18T02:08:07;18.20;;;11.37;;
15002;SDS011;7597;53.590;10.020;2022-12-18T02:10:33;17.47;;;10.83;;
15002;SDS011;7597;53.590;10.020;2022-12-18T02:13:03;21.90;;;11.73;;
15002;SDS011;7597;53.590;10.020;2022-12-18T02:15:34;19.50;;;11.53;;
15002;SDS011;7597;53.590;10.020;2022-12-18T02:18:06;19.07;;;11.53;;
15002;SDS011;7597;53.590;10.020;2022-12-18T02:20:35;16.17;;;10.53;;
15002;SDS011;7597;53.590;10.020;2022-12-18T02:24:15;15.23;;;10.27;;
15002;SDS011;7597;53.590;10.020;2022-12-18T02:26:28;20.00;;;10.97;;
15002;SDS011;7597;53.590;10.020;2022-12-18T02:28:41;17.47;;;10.73;;
15002;SDS011;7597;53.590;10.020;2022-12-18T02:31:10;21.07;;;11.50;;
15002;SDS011;7597;53.590;10.020;2022-12-18T02:33:35;21.37;;;12.17;;
15002;SDS011;7597;53.590;10.020;2022-12-18T02:36:02;18.10;;;11.17;;
15002;SDS011;7597;53.590;10.020;2022-12-18T02:38:29;19.90;;;10.83;;
15002;SDS011;7597;53.590;10.020;2022-12-18T02:40:55;15.00;;;10.73;;
15002;SDS011;7597;53.590;10.020;2022-12-18T02:43:22;16.03;;;11.20;;
15002;SDS011;7597;53.590;10.020;2022-12-18T02:45:52;18.87;;;10.57;;
15002;SDS011;7597;53.590;10.020;2022-12-18T02:48:18;16.70;;;10.70;;
15002;SDS011;7597;53.590;10.020;2022-12-18T02:50:45;19.00;;;10.90;;
15002;SDS011;7597;53.590;10.020;2022-12-18T02:53:24;15.13;;;9.93;;
15002;SDS011;7597;53.590;10.020;2022-12-18T02:56:11;19.83;;;10.60;;
15002;SDS011;7597;53.590;10.020;2022-12-18T02:58:44;19.40;;;11.43;;
15002;SDS011;7597;53.590;10.020;2022-12-18T03:01:14;20.17;;;11.00;;
15002;SDS011;7597;53.590;10.020;2022-12-18T03:03:44;17.80;;;10.63;;
15002;SDS011;7597;53.590;10.020;2022-12-18T03:06:12;16.23;;;10.30;;
15002;SDS011;7597;53.590;10.020;2022-12-18T03:08:38;20.40;;;10.30;;
15002;SDS011;7597;53.590;10.020;2022-12-18T03:11:05;18.67;;;10.17;;
15002;SDS011;7597;53.590;10.020;2022-12-18T03:13:31;20.10;;;10.80;;
15002;SDS011;7597;53.590;10.020;2022-12-18T03:15:57;16.77;;;10.60;;
15002;SDS011;7597;53.590;10.020;2022-12-18T03:18:26;15.63;;;10.17;;
15002;SDS011;7597;53.590;10.020;2022-12-18T03:20:51;18.60;;;9.93;;
15002;SDS011;7597;53.590;10.020;2022-12-18T03:23:20;15.60;;;9.70;;
15002;SDS011;7597;53.590;10.020;2022-12-18T03:25:45;19.87;;;10.40;;
15002;SDS011;7597;53.590;10.020;2022-12-18T03:28:12;19.73;;;10.87;;
15002;SDS011;7597;53.590;10.020;2022-12-18T03:30:39;22.57;;;11.47;;
15002;SDS011;7597;53.590;10.020;2022-12-18T03:33:08;16.90;;;10.50;;
15002;SDS011;7597;53.590;10.020;2022-12-18T03:35:35;17.13;;;10.00;;
15002;SDS011;7597;53.590;10.020;2022-12-18T03:38:00;16.73;;;10.10;;
15002;SDS011;7597;53.590;10.020;2022-12-18T03:40:30;17.47;;;9.80;;
15002;SDS011;7597;53.590;10.020;2022-12-18T03:42:57;16.40;;;10.03;;
15002;SDS011;7597;53.590;10.020;2022-12-18T03:45:23;18.27;;;9.77;;
15002;SDS011;7597;53.590;10.020;2022-12-18T03:50:45;17.70;;;9.77;;
15002;SDS011;7597;53.590;10.020;2022-12-18T03:56:00;18.43;;;10.20;;
15002;SDS011;7597;53.590;10.020;2022-12-18T03:58:28;19.47;;;10.20;;
15002;SDS011;7597;53.590;10.020;2022-12-18T04:00:55;17.23;;;10.00;;
15002;SDS011;7597;53.590;10.020;2022-12-18T04:03:21;15.83;;;10.03;;
15002;SDS011;7597;53.590;10.020;2022-12-18T04:05:48;18.00;;;9.30;;
15002;SDS011;7597;53.590;10.020;2022-12-18T04:08:14;17.47;;;9.50;;
15002;SDS011;7597;53.590;10.020;2022-12-18T04:10:41;16.10;;;9.67;;
15002;SDS011;7597;53.590;10.020;2022-12-18T04:13:08;15.70;;;9.93;;
15002;SDS011;7597;53.590;10.020;2022-12-18T04:15:34;14.63;;;9.70;;
15002;SDS011;7597;53.590;10.020;2022-12-18T04:18:00;12.83;;;8.97;;
15002;SDS011;7597;53.590;10.020;2022-12-18T04:20:27;15.33;;;8.83;;
15002;SDS011;7597;53.590;10.020;2022-12-18T04:22:54;19.13;;;9.97;;
15002;SDS011;7597;53.590;10.020;2022-12-18T04:25:21;20.37;;;9.37;;
15002;SDS011;7597;53.590;10.020;2022-12-18T04:27:48;13.83;;;8.70;;
15002;SDS011;7597;53.590;10.020;2022-12-18T04:30:14;14.70;;;9.00;;
15002;SDS011;7597;53.590;10.020;2022-12-18T04:32:41;13.57;;;8.67;;
15002;SDS011;7597;53.590;10.020;2022-12-18T04:35:08;12.93;;;9.07;;
15002;SDS011;7597;53.590;10.020;2022-12-18T04:37:34;14.70;;;9.57;;
15002;SDS011;7597;53.590;10.020;2022-12-18T04:40:01;12.83;;;9.47;;
15002;SDS011;7597;53.590;10.020;2022-12-18T04:42:28;16.43;;;9.77;;
15002;SDS011;7597;53.590;10.020;2022-12-18T04:44:55;13.87;;;8.90;;
15002;SDS011;7597;53.590;10.020;2022-12-18T04:47:22;14.23;;;9.03;;
15002;SDS011;7597;53.590;10.020;2022-12-18T04:49:48;17.47;;;10.10;;
15002;SDS011;7597;53.590;10.020;2022-12-18T04:52:15;15.17;;;9.37;;
15002;SDS011;7597;53.590;10.020;2022-12-18T04:54:41;14.87;;;9.57;;
15002;SDS011;7597;53.590;10.020;2022-12-18T04:57:09;13.43;;;9.40;;
15002;SDS011;7597;53.590;10.020;2022-12-18T04:59:35;12.63;;;8.57;;
15002;SDS011;7597;53.590;10.020;2022-12-18T05:02:01;17.03;;;9.50;;
15002;SDS011;7597;53.590;10.020;2022-12-18T05:04:28;17.50;;;10.50;;
15002;SDS011;7597;53.590;10.020;2022-12-18T05:06:55;14.17;;;9.83;;
15002;SDS011;7597;53.590;10.020;2022-12-18T05:09:22;15.20;;;9.60;;
15002;SDS011;7597;53.590;10.020;2022-12-18T05:11:49;18.07;;;9.70;;
15002;SDS011;7597;53.590;10.020;2022-12-18T05:14:15;18.90;;;9.73;;
15002;SDS011;7597;53.590;10.020;2022-12-18T05:16:42;18.10;;;10.27;;
15002;SDS011;7597;53.590;10.020;2022-12-18T05:19:09;15.53;;;9.30;;
15002;SDS011;7597;53.590;10.020;2022-12-18T05:21:36;16.87;;;9.27;;
15002;SDS011;7597;53.590;10.020;2022-12-18T05:24:03;14.27;;;8.70;;
15002;SDS011;7597;53.590;10.020;2022-12-18T05:26:29;15.67;;;9.90;;
15002;SDS011;7597;53.590;10.020;2022-12-18T05:28:56;17.67;;;9.93;;
15002;SDS011;7597;53.590;10.020;2022-12-18T05:31:23;17.93;;;9.97;;
15002;SDS011;7597;53.590;10.020;2022-12-18T05:33:49;17.57;;;10.30;;
15002;SDS011;7597;53.590;10.020;2022-12-18T05:36:16;15.80;;;9.27;;
15002;SDS011;7597;53.590;10.020;2022-12-18T05:38:43;17.03;;;10.87;;
15002;SDS011;7597;53.590;10.020;2022-12-18T05:41:09;17.60;;;9.00;;
15002;SDS011;7597;53.590;10.020;2022-12-18T05:43:36;12.23;;;8.57;;
15002;SDS011;7597;53.590;10.020;2022-12-18T05:46:03;14.77;;;9.17;;
15002;SDS011;7597;53.590;10.020;2022-12-18T05:48:31;15.70;;;10.37;;
15002;SDS011;7597;53.590;10.020;2022-12-18T05:51:03;16.67;;;9.80;;
15002;SDS011;7597;53.590;10.020;2022-12-18T05:53:24;16.63;;;8.90;;
15002;SDS011;7597;53.590;10.020;2022-12-18T05:55:51;16.57;;;10.17;;
15002;SDS011;7597;53.590;10.020;2022-12-18T05:58:18;16.63;;;9.20;;
15002;SDS011;7597;53.590;10.020;2022-12-18T06:00:45;15.67;;;9.90;;
15002;SDS011;7597;53.590;10.020;2022-12-18T06:03:12;17.03;;;9.77;;
15002;SDS011;7597;53.590;10.020;2022-12-18T06:05:39;18.30;;;10.23;;
15002;SDS011;7597;53.590;10.020;2022-12-18T06:08:05;19.33;;;10.23;;
15002;SDS011;7597;53.590;10.020;2022-12-18T06:10:31;18.83;;;10.20;;
15002;SDS011;7597;53.590;10.020;2022-12-18T06:12:58;18.47;;;10.13;;
15002;SDS011;7597;53.590;10.020;2022-12-18T06:15:25;17.57;;;9.27;;
15002;SDS011;7597;53.590;10.020;2022-12-18T06:17:51;16.03;;;10.07;;
15002;SDS011;7597;53.590;10.020;2022-12-18T06:20:18;14.87;;;10.20;;
15002;SDS011;7597;53.590;10.020;2022-12-18T06:22:44;14.73;;;10.13;;
15002;SDS011;7597;53.590;10.020;2022-12-18T06:25:11;16.53;;;10.07;;
15002;SDS011;7597;53.590;10.020;2022-12-18T06:27:38;16.73;;;10.60;;
15002;SDS011;7597;53.590;10.020;2022-12-18T06:30:05;18.07;;;10.50;;
15002;SDS011;7597;53.590;10.020;2022-12-18T06:32:32;16.07;;;11.07;;
15002;SDS011;7597;53.590;10.020;2022-12-18T06:34:58;14.70;;;9.73;;
15002;SDS011;7597;53.590;10.020;2022-12-18T06:37:25;15.90;;;9.23;;
15002;SDS011;7597;53.590;10.020;2022-12-18T06:39:52;22.20;;;11.20;;
15002;SDS011;7597;53.590;10.020;2022-12-18T06:42:21;16.43;;;10.50;;
15002;SDS011;7597;53.590;10.020;2022-12-18T06:44:48;16.77;;;10.40;;
15002;SDS011;7597;53.590;10.020;2022-12-18T06:47:14;20.43;;;10.27;;
15002;SDS011;7597;53.590;10.020;2022-12-18T06:49:41;16.87;;;10.23;;
15002;SDS011;7597;53.590;10.020;2022-12-18T06:52:08;19.47;;;10.67;;
15002;SDS011;7597;53.590;10.020;2022-12-18T06:54:35;20.67;;;11.60;;
15002;SDS011;7597;53.590;10.020;2022-12-18T06:57:02;15.60;;;9.90;;
15002;SDS011;7597;53.590;10.020;2022-12-18T06:59:28;19.77;;;10.73;;
15002;SDS011;7597;53.590;10.020;2022-12-18T07:01:55;18.93;;;11.53;;
15002;SDS011;7597;53.590;10.020;2022-12-18T07:04:26;19.20;;;11.40;;
15002;SDS011;7597;53.590;10.020;2022-12-18T07:06:49;18.13;;;10.60;;
15002;SDS011;7597;53.590;10.020;2022-12-18T07:09:16;17.17;;;10.47;;
15002;SDS011;7597;53.590;10.020;2022-12-18T07:11:43;17.63;;;10.90;;
15002;SDS011;7597;53.590;10.020;2022-12-18T07:14:10;18.23;;;10.57;;
15002;SDS011;7597;53.590;10.020;2022-12-18T07:16:36;16.83;;;11.17;;
15002;SDS011;7597;53.590;10.020;2022-12-18T07:19:03;17.03;;;10.30;;
15002;SDS011;7597;53.590;10.020;2022-12-18T07:21:29;16.43;;;10.10;;
15002;SDS011;7597;53.590;10.020;2022-12-18T07:23:57;18.40;;;11.83;;
15002;SDS011;7597;53.590;10.020;2022-12-18T07:26:23;17.07;;;10.57;;
15002;SDS011;7597;53.590;10.020;2022-12-18T07:28:50;16.37;;;10.33;;
15002;SDS011;7597;53.590;10.020;2022-12-18T07:31:18;18.67;;;11.13;;
15002;SDS011;7597;53.590;10.020;2022-12-18T07:33:43;15.83;;;10.77;;
15002;SDS011;7597;53.590;10.020;2022-12-18T07:36:10;18.60;;;10.77;;
15002;SDS011;7597;53.590;10.020;2022-12-18T07:38:37;20.77;;;12.43;;
15002;SDS011;7597;53.590;10.020;2022-12-18T07:41:06;20.97;;;11.43;;
15002;SDS011;7597;53.590;10.020;2022-12-18T07:43:31;18.23;;;12.03;;
15002;SDS011;7597;53.590;10.020;2022-12-18T07:45:58;17.13;;;10.20;;
15002;SDS011;7597;53.590;10.020;2022-12-18T07:48:25;17.07;;;10.13;;
15002;SDS011;7597;53.590;10.020;2022-12-18T07:50:51;14.83;;;9.80;;
15002;SDS011;7597;53.590;10.020;2022-12-18T07:53:18;16.20;;;10.43;;
15002;SDS011;7597;53.590;10.020;2022-12-18T07:55:45;19.00;;;11.03;;
15002;SDS011;7597;53.590;10.020;2022-12-18T07:58:11;19.40;;;11.17;;
15002;SDS011;7597;53.590;10.020;2022-12-18T08:00:38;17.37;;;10.83;;
15002;SDS011;7597;53.590;10.020;2022-12-18T08:03:04;19.03;;;10.63;;
15002;SDS011;7597;53.590;10.020;2022-12-18T08:05:31;21.07;;;11.27;;
15002;SDS011;7597;53.590;10.020;2022-12-18T08:07:58;21.37;;;11.33;;
15002;SDS011;7597;53.590;10.020;2022-12-18T08:10:25;17.73;;;11.70;;
15002;SDS011;7597;53.590;10.020;2022-12-18T08:12:53;21.33;;;12.30;;
15002;SDS011;7597;53.590;10.020;2022-12-18T08:15:19;18.57;;;11.67;;
15002;SDS011;7597;53.590;10.020;2022-12-18T08:17:46;20.10;;;12.13;;
15002;SDS011;7597;53.590;10.020;2022-12-18T08:20:13;18.53;;;11.37;;
15002;SDS011;7597;53.590;10.020;2022-12-18T08:22:39;17.43;;;10.47;;
15002;SDS011;7597;53.590;10.020;2022-12-18T08:25:06;18.40;;;10.93;;
15002;SDS011;7597;53.590;10.020;2022-12-18T08:27:33;19.03;;;11.10;;
15002;SDS011;7597;53.590;10.020;2022-12-18T08:30:00;16.20;;;11.13;;
15002;SDS011;7597;53.590;10.020;2022-12-18T08:32:26;17.93;;;11.60;;
15002;SDS011;7597;53.590;10.020;2022-12-18T08:34:53;17.20;;;11.47;;
15002;SDS011;7597;53.590;10.020;2022-12-18T08:37:20;19.70;;;11.70;;
15002;SDS011;7597;53.590;10.020;2022-12-18T08:39:46;17.97;;;11.47;;
15002;SDS011;7597;53.590;10.020;2022-12-18T08:42:14;18.70;;;11.73;;
15002;SDS011;7597;53.590;10.020;2022-12-18T08:44:46;17.80;;;12.17;;
15002;SDS011;7597;53.590;10.020;2022-12-18T08:47:13;15.90;;;10.20;;
15002;SDS011;7597;53.590;10.020;2022-12-18T08:49:39;17.90;;;11.63;;
15002;SDS011;7597;53.590;10.020;2022-12-18T08:52:07;14.20;;;10.20;;
15002;SDS011;7597;53.590;10.020;2022-12-18T08:54:34;16.53;;;10.83;;
15002;SDS011;7597;53.590;10.020;2022-12-18T08:57:02;19.43;;;10.97;;
15002;SDS011;7597;53.590;10.020;2022-12-18T08:59:28;18.57;;;11.47;;
15002;SDS011;7597;53.590;10.020;2022-12-18T09:01:55;13.53;;;9.57;;
15002;SDS011;7597;53.590;10.020;2022-12-18T09:04:22;14.47;;;9.63;;
15002;SDS011;7597;53.590;10.020;2022-12-18T09:06:48;13.47;;;9.40;;
15002;SDS011;7597;53.590;10.020;2022-12-18T09:09:15;12.80;;;9.40;;
15002;SDS011;7597;53.590;10.020;2022-12-18T09:11:41;16.13;;;10.60;;
15002;SDS011;7597;53.590;10.020;2022-12-18T09:14:08;14.57;;;9.93;;
15002;SDS011;7597;53.590;10.020;2022-12-18T09:16:35;14.10;;;9.57;;
15002;SDS011;7597;53.590;10.020;2022-12-18T09:19:02;14.50;;;10.40;;
15002;SDS011;7597;53.590;10.020;2022-12-18T09:21:29;15.10;;;10.37;;
15002;SDS011;7597;53.590;10.020;2022-12-18T09:23:55;13.63;;;10.53;;
15002;SDS011;7597;53.590;10.020;2022-12-18T09:26:22;16.70;;;10.87;;
15002;SDS011;7597;53.590;10.020;2022-12-18T09:28:48;13.80;;;9.80;;
15002;SDS011;7597;53.590;10.020;2022-12-18T09:31:14;15.40;;;9.87;;
15002;SDS011;7597;53.590;10.020;2022-12-18T09:33:41;14.73;;;10.60;;
15002;SDS011;7597;53.590;10.020;2022-12-18T09:36:09;12.20;;;9.83;;
15002;SDS011;7597;53.590;10.020;2022-12-18T09:38:35;13.70;;;10.03;;
15002;SDS011;7597;53.590;10.020;2022-12-18T09:41:05;15.10;;;10.30;;
15002;SDS011;7597;53.590;10.020;2022-12-18T09:43:36;13.30;;;10.20;;
15002;SDS011;7597;53.590;10.020;2022-12-18T09:46:04;12.57;;;10.30;;
15002;SDS011;7597;53.590;10.020;2022-12-18T09:48:31;14.00;;;9.77;;
15002;SDS011;7597;53.590;10.020;2022-12-18T09:50:59;13.70;;;10.70;;
15002;SDS011;7597;53.590;10.020;2022-12-18T09:53:24;16.93;;;10.27;;
15002;SDS011;7597;53.590;10.020;2022-12-18T09:55:51;11.43;;;9.27;;
15002;SDS011;7597;53.590;10.020;2022-12-18T10:00:54;12.37;;;9.87;;
15002;SDS011;7597;53.590;10.020;2022-12-18T10:03:21;14.10;;;10.17;;
15002;SDS011;7597;53.590;10.020;2022-12-18T10:05:54;14.53;;;9.50;;
15002;SDS011;7597;53.590;10.020;2022-12-18T10:10:52;15.03;;;9.73;;
15002;SDS011;7597;53.590;10.020;2022-12-18T10:13:22;11.37;;;9.13;;
15002;SDS011;7597;53.590;10.020;2022-12-18T10:15:54;14.43;;;9.53;;
15002;SDS011;7597;53.590;10.020;2022-12-18T10:18:23;12.30;;;9.37;;
15002;SDS011;7597;53.590;10.020;2022-12-18T10:20:51;15.57;;;9.40;;
15002;SDS011;7597;53.590;10.020;2022-12-18T10:26:06;13.57;;;9.53;;
15002;SDS011;7597;53.590;10.020;2022-12-18T10:28:34;14.27;;;9.67;;
15002;SDS011;7597;53.590;10.020;2022-12-18T10:30:59;14.57;;;9.73;;
15002;SDS011;7597;53.590;10.020;2022-12-18T10:33:29;13.90;;;9.70;;
15002;SDS011;7597;53.590;10.020;2022-12-18T10:35:55;14.63;;;9.30;;
15002;SDS011;7597;53.590;10.020;2022-12-18T10:38:26;11.80;;;8.80;;
15002;SDS011;7597;53.590;10.020;2022-12-18T10:41:24;12.57;;;9.27;;
15002;SDS011;7597;53.590;10.020;2022-12-18T10:43:39;14.93;;;9.10;;
15002;SDS011;7597;53.590;10.020;2022-12-18T10:46:15;13.27;;;9.43;;
15002;SDS011;7597;53.590;10.020;2022-12-18T10:48:51;12.53;;;8.93;;
15002;SDS011;7597;53.590;10.020;2022-12-18T10:53:52;14.33;;;9.43;;
15002;SDS011;7597;53.590;10.020;2022-12-18T10:56:19;13.37;;;8.83;;
15002;SDS011;7597;53.590;10.020;2022-12-18T10:58:45;14.70;;;9.30;;
15002;SDS011;7597;53.590;10.020;2022-12-18T11:01:13;12.37;;;8.70;;
15002;SDS011;7597;53.590;10.020;2022-12-18T11:03:42;12.53;;;9.23;;
15002;SDS011;7597;53.590;10.020;2022-12-18T11:06:12;14.00;;;9.90;;
15002;SDS011;7597;53.590;10.020;2022-12-18T11:08:38;13.77;;;9.53;;
15002;SDS011;7597;53.590;10.020;2022-12-18T11:11:07;12.93;;;10.00;;
15002;SDS011;7597;53.590;10.020;2022-12-18T11:13:33;13.00;;;10.03;;
15002;SDS011;7597;53.590;10.020;2022-12-18T11:16:00;12.73;;;9.63;;
15002;SDS011;7597;53.590;10.020;2022-12-18T11:18:29;13.57;;;9.17;;
15002;SDS011;7597;53.590;10.020;2022-12-18T11:20:57;15.63;;;10.03;;
15002;SDS011;7597;53.590;10.020;2022-12-18T11:23:29;12.43;;;9.43;;
15002;SDS011;7597;53.590;10.020;2022-12-18T11:25:59;13.83;;;9.67;;
15002;SDS011;7597;53.590;10.020;2022-12-18T11:28:26;12.23;;;10.03;;
15002;SDS011;7597;53.590;10.020;2022-12-18T11:33:32;15.67;;;9.80;;
15002;SDS011;7597;53.590;10.020;2022-12-18T11:35:59;15.77;;;10.10;;
15002;SDS011;7597;53.590;10.020;2022-12-18T11:38:27;16.03;;;10.30;;
15002;SDS011;7597;53.590;10.020;2022-12-18T11:43:27;15.67;;;10.07;;
15002;SDS011;7597;53.590;10.020;2022-12-18T11:45:56;16.87;;;11.17;;
15002;SDS011;7597;53.590;10.020;2022-12-18T11:48:30;15.80;;;10.40;;
15002;SDS011;7597;53.590;10.020;2022-12-18T11:50:56;15.90;;;10.30;;
15002;SDS011;7597;53.590;10.020;2022-12-18T11:53:22;16.60;;;10.33;;
15002;SDS011;7597;53.590;10.020;2022-12-18T11:55:58;15.70;;;10.67;;
15002;SDS011;7597;53.590;10.020;2022-12-18T12:03:57;16.17;;;10.50;;
15002;SDS011;7597;53.590;10.020;2022-12-18T12:12:22;15.47;;;10.67;;
15002;SDS011;7597;53.590;10.020;2022-12-18T12:15:10;18.43;;;11.13;;
15002;SDS011;7597;53.590;10.020;2022-12-18T12:17:41;17.87;;;11.07;;
15002;SDS011;7597;53.590;10.020;2022-12-18T12:20:12;17.37;;;10.80;;
15002;SDS011;7597;53.590;10.020;2022-12-18T12:22:44;16.47;;;10.57;;
15002;SDS011;7597;53.590;10.020;2022-12-18T12:25:30;14.93;;;10.33;;
15002;SDS011;7597;53.590;10.020;2022-12-18T12:28:01;17.73;;;10.77;;
15002;SDS011;7597;53.590;10.020;2022-12-18T12:30:50;17.37;;;10.57;;
15002;SDS011;7597;53.590;10.020;2022-12-18T12:33:31;15.83;;;10.30;;
15002;SDS011;7597;53.590;10.020;2022-12-18T12:36:00;17.63;;;10.70;;
15002;SDS011;7597;53.590;10.020;2022-12-18T12:38:35;17.53;;;11.20;;
15002;SDS011;7597;53.590;10.020;2022-12-18T12:41:05;17.97;;;11.00;;
15002;SDS011;7597;53.590;10.020;2022-12-18T12:43:33;16.53;;;11.13;;
15002;SDS011;7597;53.590;10.020;2022-12-18T12:46:00;17.87;;;11.20;;
15002;SDS011;7597;53.590;10.020;2022-12-18T12:48:34;19.83;;;11.17;;
15002;SDS011;7597;53.590;10.020;2022-12-18T12:51:00;18.50;;;11.60;;
15002;SDS011;7597;53.590;10.020;2022-12-18T12:53:28;20.27;;;11.70;;
15002;SDS011;7597;53.590;10.020;2022-12-18T12:55:54;17.63;;;10.43;;
15002;SDS011;7597;53.590;10.020;2022-12-18T12:58:25;17.37;;;10.47;;
15002;SDS011;7597;53.590;10.020;2022-12-18T13:01:08;17.77;;;11.13;;
15002;SDS011;7597;53.590;10.020;2022-12-18T13:03:38;21.23;;;10.90;;
15002;SDS011;7597;53.590;10.020;2022-12-18T13:06:14;18.20;;;11.13;;
15002;SDS011;7597;53.590;10.020;2022-12-18T13:08:53;15.67;;;10.17;;
15002;SDS011;7597;53.590;10.020;2022-12-18T13:14:00;17.33;;;10.53;;
15002;SDS011;7597;53.590;10.020;2022-12-18T13:16:26;19.43;;;10.70;;
15002;SDS011;7597;53.590;10.020;2022-12-18T13:18:53;19.37;;;11.23;;
15002;SDS011;7597;53.590;10.020;2022-12-18T13:21:21;19.20;;;11.23;;
15002;SDS011;7597;53.590;10.020;2022-12-18T13:23:47;17.13;;;10.80;;
15002;SDS011;7597;53.590;10.020;2022-12-18T13:28:57;18.53;;;10.60;;
15002;SDS011;7597;53.590;10.020;2022-12-18T13:34:27;21.80;;;12.17;;
15002;SDS011;7597;53.590;10.020;2022-12-18T13:36:54;24.50;;;11.27;;
15002;SDS011;7597;53.590;10.020;2022-12-18T13:39:22;20.90;;;11.90;;
15002;SDS011;7597;53.590;10.020;2022-12-18T13:41:49;20.10;;;10.90;;
15002;SDS011;7597;53.590;10.020;2022-12-18T13:46:48;22.63;;;11.93;;
15002;SDS011;7597;53.590;10.020;2022-12-18T13:49:20;20.03;;;11.40;;
15002;SDS011;7597;53.590;10.020;2022-12-18T13:51:48;22.63;;;11.73;;
15002;SDS011;7597;53.590;10.020;2022-12-18T13:54:21;22.87;;;12.03;;
15002;SDS011;7597;53.590;10.020;2022-12-18T13:56:48;26.20;;;13.53;;
15002;SDS011;7597;53.590;10.020;2022-12-18T13:59:18;21.10;;;11.70;;
15002;SDS011;7597;53.590;10.020;2022-12-18T14:01:47;22.83;;;11.17;;
15002;SDS011;7597;53.590;10.020;2022-12-18T14:06:56;23.37;;;11.53;;
15002;SDS011;7597;53.590;10.020;2022-12-18T14:09:24;20.47;;;12.20;;
15002;SDS011;7597;53.590;10.020;2022-12-18T14:11:49;21.97;;;12.40;;
15002;SDS011;7597;53.590;10.020;2022-12-18T14:14:16;25.50;;;12.97;;
15002;SDS011;7597;53.590;10.020;2022-12-18T14:16:43;20.80;;;12.47;;
15002;SDS011;7597;53.590;10.020;2022-12-18T14:19:12;20.13;;;11.20;;
15002;SDS011;7597;53.590;10.020;2022-12-18T14:21:36;23.63;;;12.03;;
15002;SDS011;7597;53.590;10.020;2022-12-18T14:24:05;25.77;;;13.00;;
15002;SDS011;7597;53.590;10.020;2022-12-18T14:26:31;23.90;;;12.27;;
15002;SDS011;7597;53.590;10.020;2022-12-18T14:28:59;25.63;;;13.10;;
15002;SDS011;7597;53.590;10.020;2022-12-18T14:31:26;29.07;;;14.37;;
15002;SDS011;7597;53.590;10.020;2022-12-18T14:33:52;21.93;;;11.97;;
15002;SDS011;7597;53.590;10.020;2022-12-18T14:36:20;27.37;;;12.40;;
15002;SDS011;7597;53.590;10.020;2022-12-18T14:38:49;26.97;;;12.90;;
15002;SDS011;7597;53.590;10.020;2022-12-18T14:41:15;27.77;;;12.70;;
15002;SDS011;7597;53.590;10.020;2022-12-18T14:43:43;27.23;;;13.60;;
15002;SDS011;7597;53.590;10.020;2022-12-18T14:48:47;23.07;;;12.37;;
15002;SDS011;7597;53.590;10.020;2022-12-18T14:51:16;23.70;;;13.77;;
15002;SDS011;7597;53.590;10.020;2022-12-18T14:53:42;26.80;;;13.97;;
15002;SDS011;7597;53.590;10.020;2022-12-18T14:56:14;28.63;;;14.10;;
15002;SDS011;7597;53.590;10.020;2022-12-18T14:58:44;31.43;;;14.90;;
15002;SDS011;7597;53.590;10.020;2022-12-18T15:01:19;28.27;;;14.57;;
15002;SDS011;7597;53.590;10.020;2022-12-18T15:03:50;28.03;;;14.37;;
15002;SDS011;7597;53.590;10.020;2022-12-18T15:06:17;27.63;;;14.13;;
15002;SDS011;7597;53.590;10.020;2022-12-18T15:08:43;32.43;;;15.50;;
15002;SDS011;7597;53.590;10.020;2022-12-18T15:13:48;30.97;;;14.87;;
15002;SDS011;7597;53.590;10.020;2022-12-18T15:16:15;28.77;;;14.07;;
15002;SDS011;7597;53.590;10.020;2022-12-18T15:18:42;26.03;;;13.17;;
15002;SDS011;7597;53.590;10.020;2022-12-18T15:21:10;32.63;;;15.70;;